createdAt,value
2023-03-28T00:13:36.974Z,58.40
2023-03-28T00:23:52.512Z,58.30
2023-03-28T00:27:17.780Z,58.90
2023-03-28T00:30:42.784Z,59.10
2023-03-28T00:34:07.501Z,59.20
2023-03-28T00:37:31.797Z,59.40
2023-03-28T00:40:58.659Z,59.40
2023-03-28T00:44:45.068Z,59.30
2023-03-28T00:48:15.499Z,59.40
2023-03-28T00:51:43.763Z,58.90
2023-03-28T00:55:13.618Z,58.80
2023-03-28T00:58:44.841Z,58.90
2023-03-28T01:05:36.697Z,58.90
2023-03-28T01:09:05.418Z,58.80
2023-03-28T01:16:00.194Z,58.80
2023-03-28T01:19:45.658Z,58.80
2023-03-28T01:23:47.271Z,58.80
2023-03-28T01:27:20.594Z,58.80
2023-03-28T01:31:30.420Z,58.80
2023-03-28T01:36:34.052Z,58.80
2023-03-28T01:40:36.633Z,58.80
2023-03-28T01:44:11.385Z,58.80
2023-03-28T01:47:41.470Z,58.90
2023-03-28T01:51:18.351Z,58.90
2023-03-28T01:54:52.264Z,59.00
2023-03-28T01:58:29.297Z,59.00
2023-03-28T02:02:08.405Z,59.00
2023-03-28T02:05:35.883Z,59.10
2023-03-28T02:09:05.609Z,59.10
2023-03-28T02:12:53.489Z,59.10
2023-03-28T02:16:54.251Z,59.30
2023-03-28T02:20:46.719Z,59.20
2023-03-28T02:28:11.868Z,59.50
2023-03-28T02:32:05.071Z,59.40
2023-03-28T02:35:48.088Z,59.50
2023-03-28T02:39:43.022Z,59.60
2023-03-28T02:43:44.881Z,59.60
2023-03-28T02:47:18.015Z,59.70
2023-03-28T02:50:53.535Z,59.70
2023-03-28T02:54:32.149Z,59.70
2023-03-28T02:58:27.411Z,59.60
2023-03-28T03:05:17.633Z,59.70
2023-03-28T03:08:41.399Z,59.60
2023-03-28T03:15:30.858Z,59.50
2023-03-28T03:22:21.361Z,59.60
2023-03-28T03:25:50.474Z,59.50
2023-03-28T03:36:30.384Z,59.50
2023-03-28T03:39:56.993Z,59.50
2023-03-28T03:43:27.751Z,59.50
2023-03-28T03:53:40.068Z,59.50
2023-03-28T03:57:09.455Z,59.40
2023-03-28T04:07:32.908Z,59.40
2023-03-28T04:14:21.621Z,59.20
2023-03-28T04:28:12.931Z,59.40
2023-03-28T04:31:55.923Z,59.50
2023-03-28T04:49:40.582Z,59.40
2023-03-28T04:56:28.822Z,59.50
2023-03-28T05:07:07.808Z,59.60
2023-03-28T05:10:31.609Z,59.60
2023-03-28T05:24:22.422Z,59.70
2023-03-28T05:31:10.015Z,59.80
2023-03-28T05:37:58.846Z,59.80
2023-03-28T05:41:24.020Z,59.90
2023-03-28T05:44:47.537Z,59.90
2023-03-28T05:51:53.513Z,60.00
2023-03-28T05:58:42.812Z,60.10
2023-03-28T06:15:49.344Z,60.30
2023-03-28T06:33:03.672Z,60.60
2023-03-28T06:36:27.318Z,60.60
2023-03-28T06:43:16.562Z,60.40
2023-03-28T06:46:43.899Z,62.80
2023-03-28T06:50:12.129Z,67.00
2023-03-28T06:53:46.357Z,71.10
2023-03-28T06:57:10.968Z,74.80
2023-03-28T07:00:35.822Z,76.20
2023-03-28T07:04:21.982Z,75.30
2023-03-28T07:07:48.123Z,74.00
2023-03-28T07:11:11.776Z,72.00
2023-03-28T07:14:37.660Z,72.50
2023-03-28T07:18:01.547Z,69.50
2023-03-28T07:21:25.636Z,68.90
2023-03-28T07:24:53.851Z,68.60
2023-03-28T07:28:18.620Z,66.30
2023-03-28T07:31:42.629Z,66.10
2023-03-28T07:35:09.460Z,68.80
2023-03-28T07:38:41.975Z,70.00
2023-03-28T07:42:11.827Z,68.20
2023-03-28T07:45:36.090Z,66.40
2023-03-28T07:49:00.868Z,63.80
2023-03-28T07:52:24.673Z,65.20
2023-03-28T07:55:54.844Z,63.90
2023-03-28T07:59:23.431Z,62.40
2023-03-28T08:06:31.015Z,57.20
2023-03-28T08:09:58.438Z,56.00
2023-03-28T08:13:24.426Z,55.00
2023-03-28T08:16:49.543Z,54.50
2023-03-28T08:20:13.944Z,54.70
2023-03-28T08:23:44.894Z,59.20
2023-03-28T08:27:28.614Z,62.40
2023-03-28T08:30:56.164Z,65.00
2023-03-28T08:34:21.045Z,66.70
2023-03-28T08:37:44.853Z,65.40
2023-03-28T08:41:35.037Z,65.70
2023-03-28T08:45:22.977Z,63.50
2023-03-28T08:48:49.689Z,65.10
2023-03-28T08:52:18.543Z,65.40
2023-03-28T08:55:44.082Z,63.50
2023-03-28T08:59:12.726Z,60.10
2023-03-28T09:02:36.324Z,58.30
2023-03-28T09:06:08.771Z,60.10
2023-03-28T09:09:53.298Z,58.00
2023-03-28T09:13:54.378Z,54.50
2023-03-28T09:17:30.237Z,53.30
2023-03-28T09:21:03.891Z,50.60
2023-03-28T09:25:14.558Z,51.20
2023-03-28T09:28:49.823Z,50.20
2023-03-28T09:32:26.063Z,50.50
2023-03-28T09:35:57.044Z,50.40
2023-03-28T09:39:34.883Z,50.60
2023-03-28T09:43:13.017Z,51.10
2023-03-28T09:46:52.338Z,51.00
2023-03-28T09:50:36.288Z,51.60
2023-03-28T09:54:07.995Z,50.90
2023-03-28T09:58:06.659Z,50.50
2023-03-28T10:01:46.704Z,49.60
2023-03-28T10:05:35.725Z,50.00
2023-03-28T10:09:22.980Z,49.70
2023-03-28T10:13:00.013Z,51.00
2023-03-28T10:16:31.492Z,54.70
2023-03-28T10:20:25.378Z,57.80
2023-03-28T10:24:00.941Z,59.40
2023-03-28T10:27:29.782Z,61.20
2023-03-28T10:30:56.019Z,60.00
2023-03-28T10:34:28.971Z,60.10
2023-03-28T10:38:22.340Z,59.00
2023-03-28T10:42:04.578Z,56.90
2023-03-28T10:45:55.206Z,54.90
2023-03-28T10:49:28.930Z,49.20
2023-03-28T10:53:22.800Z,48.20
2023-03-28T10:56:55.969Z,46.50
2023-03-28T11:00:33.138Z,47.20
2023-03-28T11:04:17.528Z,48.20
2023-03-28T11:07:55.628Z,49.90
2023-03-28T11:12:03.768Z,52.40
2023-03-28T11:15:35.262Z,52.30
2023-03-28T11:19:29.188Z,51.30
2023-03-28T11:23:34.503Z,49.80
2023-03-28T11:27:26.817Z,49.60
2023-03-28T11:31:01.137Z,50.00
2023-03-28T11:35:05.574Z,51.70
2023-03-28T11:38:37.550Z,51.60
2023-03-28T11:42:09.861Z,51.90
2023-03-28T11:45:52.150Z,52.00
2023-03-28T11:49:24.998Z,50.50
2023-03-28T11:52:55.866Z,50.00
2023-03-28T11:56:37.964Z,49.00
2023-03-28T12:00:33.275Z,47.70
2023-03-28T12:04:13.127Z,47.00
2023-03-28T12:07:44.361Z,46.90
2023-03-28T12:11:30.833Z,47.20
2023-03-28T12:15:06.341Z,47.60
2023-03-28T12:18:47.200Z,45.80
2023-03-28T12:22:35.967Z,42.80
2023-03-28T12:26:18.140Z,40.80
2023-03-28T12:29:50.213Z,42.60
2023-03-28T12:33:27.738Z,43.00
2023-03-28T12:37:14.253Z,44.20
2023-03-28T12:40:56.179Z,44.70
2023-03-28T12:44:27.504Z,43.30
2023-03-28T12:48:02.240Z,42.70
2023-03-28T12:51:35.352Z,41.90
2023-03-28T12:55:02.196Z,43.10
2023-03-28T12:58:37.269Z,43.50
2023-03-28T13:02:29.920Z,43.20
2023-03-28T13:06:06.803Z,42.60
2023-03-28T13:09:46.691Z,43.00
2023-03-28T13:13:28.571Z,43.50
2023-03-28T13:16:58.671Z,43.30
2023-03-28T13:20:28.551Z,43.40
2023-03-28T13:23:53.414Z,43.20
2023-03-28T13:27:32.578Z,43.60
2023-03-28T13:31:08.874Z,43.60
2023-03-28T13:34:34.344Z,43.90
2023-03-28T13:38:22.513Z,44.20
2023-03-28T13:42:05.382Z,42.70
2023-03-28T13:45:29.253Z,43.00
2023-03-28T13:49:02.388Z,43.70
2023-03-28T13:52:26.539Z,43.30
2023-03-28T13:56:18.654Z,43.40
2023-03-28T13:59:55.279Z,42.50
2023-03-28T14:03:18.849Z,42.20
2023-03-28T14:06:42.920Z,43.10
2023-03-28T14:10:29.308Z,42.10
2023-03-28T14:14:06.048Z,41.80
2023-03-28T14:17:36.404Z,42.60
2023-03-28T14:21:01.253Z,42.60
2023-03-28T14:24:27.772Z,42.50
2023-03-28T14:27:54.569Z,42.40
2023-03-28T14:31:32.749Z,42.60
2023-03-28T14:34:57.760Z,42.40
2023-03-28T14:38:32.066Z,42.90
2023-03-28T14:41:58.366Z,42.60
2023-03-28T14:45:22.796Z,42.40
2023-03-28T14:48:46.352Z,42.40
2023-03-28T14:52:16.285Z,42.40
2023-03-28T14:55:42.015Z,42.50
2023-03-28T14:59:06.428Z,42.60
2023-03-28T15:02:36.328Z,42.70
2023-03-28T15:06:01.476Z,43.00
2023-03-28T15:09:32.740Z,43.00
2023-03-28T15:13:09.956Z,42.90
2023-03-28T15:16:39.410Z,42.50
2023-03-28T15:20:04.790Z,42.70
2023-03-28T15:23:32.020Z,43.00
2023-03-28T15:27:01.838Z,43.00
2023-03-28T15:30:26.808Z,42.90
2023-03-28T15:33:52.732Z,42.70
2023-03-28T15:37:21.247Z,42.80
2023-03-28T15:40:47.408Z,42.70
2023-03-28T15:44:28.189Z,42.70
2023-03-28T15:47:55.409Z,42.60
2023-03-28T15:51:20.341Z,42.80
2023-03-28T15:54:50.352Z,42.90
2023-03-28T15:58:16.984Z,43.00
2023-03-28T16:01:41.945Z,43.00
2023-03-28T16:05:08.012Z,42.50
2023-03-28T16:08:34.990Z,42.10
2023-03-28T16:12:03.299Z,42.00
2023-03-28T16:15:38.623Z,41.70
2023-03-28T16:19:35.033Z,42.30
2023-03-28T16:26:23.083Z,42.30
2023-03-28T16:29:46.989Z,42.40
2023-03-28T16:33:10.646Z,42.40
2023-03-28T16:36:35.882Z,42.50
2023-03-28T16:40:00.550Z,42.40
2023-03-28T16:50:14.949Z,42.50
2023-03-28T16:53:41.808Z,42.60
2023-03-28T17:00:29.457Z,42.80
2023-03-28T17:07:17.456Z,43.00
2023-03-28T17:10:44.240Z,43.00
2023-03-28T17:21:01.899Z,43.20
2023-03-28T17:24:25.641Z,43.30
2023-03-28T17:27:50.535Z,43.30
2023-03-28T17:31:16.717Z,43.40
2023-03-28T17:34:40.800Z,43.40
2023-03-28T17:38:04.378Z,43.30
2023-03-28T17:41:28.608Z,43.40
2023-03-28T17:44:54.604Z,43.40
2023-03-28T17:48:18.151Z,43.40
2023-03-28T17:51:41.852Z,43.50
2023-03-28T17:55:07.258Z,43.50
2023-03-28T18:01:57.214Z,43.60
2023-03-28T18:05:22.273Z,43.90
2023-03-28T18:12:14.047Z,44.10
2023-03-28T18:15:40.782Z,44.00
2023-03-28T18:19:06.775Z,44.10
2023-03-28T18:22:30.425Z,44.10
2023-03-28T18:29:18.341Z,44.10
2023-03-28T18:36:08.910Z,44.30
2023-03-28T18:39:32.541Z,44.10
2023-03-28T18:42:56.041Z,44.10
2023-03-28T18:49:44.438Z,44.30
2023-03-28T18:53:09.214Z,44.30
2023-03-28T18:56:32.931Z,44.30
2023-03-28T19:06:44.681Z,44.20
2023-03-28T19:10:12.900Z,44.40
2023-03-28T19:13:36.565Z,44.40
2023-03-28T19:17:00.017Z,44.50
2023-03-28T19:23:49.546Z,44.80
2023-03-28T19:27:14.324Z,44.70
2023-03-28T19:30:39.979Z,44.90
2023-03-28T19:44:22.750Z,45.00
2023-03-28T19:47:46.244Z,45.10
2023-03-28T19:51:09.946Z,45.00
2023-03-28T19:54:33.428Z,45.70
2023-03-28T19:57:58.200Z,45.20
2023-03-28T20:01:23.149Z,45.20
2023-03-28T20:04:46.796Z,45.40
2023-03-28T20:08:11.186Z,45.30
2023-03-28T20:11:34.811Z,46.00
2023-03-28T20:14:58.518Z,45.40
2023-03-28T20:18:24.220Z,46.50
2023-03-28T20:25:12.550Z,45.40
2023-03-28T20:28:36.169Z,46.10
2023-03-28T20:32:01.040Z,45.90
2023-03-28T20:35:27.518Z,46.10
2023-03-28T20:38:51.447Z,45.70
2023-03-28T20:42:14.964Z,46.20
2023-03-28T20:45:39.216Z,45.80
2023-03-28T20:49:06.360Z,46.30
2023-03-28T20:52:35.976Z,46.30
2023-03-28T20:56:04.746Z,46.30
2023-03-28T21:02:53.876Z,45.90
2023-03-28T21:06:21.439Z,45.80
2023-03-28T21:09:46.679Z,45.90
2023-03-28T21:13:10.312Z,45.60
2023-03-28T21:16:37.290Z,45.90
2023-03-28T21:26:54.010Z,45.80
2023-03-28T21:30:18.184Z,45.70
2023-03-28T21:33:42.724Z,45.80
2023-03-28T21:43:56.753Z,45.90
2023-03-28T21:50:53.561Z,45.90
2023-03-28T21:54:17.421Z,46.00
2023-03-28T21:57:40.941Z,46.00
2023-03-28T22:01:06.844Z,46.20
2023-03-28T22:04:33.429Z,46.20
2023-03-28T22:11:27.389Z,46.50
2023-03-28T22:18:16.380Z,46.70
2023-03-28T22:21:39.953Z,46.80
2023-03-28T22:25:04.286Z,46.80
2023-03-28T22:31:51.791Z,46.90
2023-03-28T22:35:16.785Z,46.90
2023-03-28T22:38:40.318Z,47.10
2023-03-28T22:52:19.383Z,47.50
2023-03-28T22:55:44.891Z,48.10
2023-03-28T23:02:32.273Z,51.60
2023-03-28T23:09:22.344Z,49.30
2023-03-28T23:12:46.071Z,49.70
2023-03-28T23:26:23.259Z,50.60
2023-03-28T23:36:34.496Z,54.30
2023-03-28T23:43:24.509Z,56.10
2023-03-28T23:50:14.270Z,58.40
